sensor_id;sensor_type;location;lat;lon;timestamp;P1;durP1;ratioP1;P2;durP2;ratioP2
31906;SDS011;18455;50.858;13.662;2023-02-28T00:00:53;7.20;;;3.03;;
31906;SDS011;18455;50.858;13.662;2023-02-28T00:05:53;5.40;;;3.20;;
31906;SDS011;18455;50.858;13.662;2023-02-28T00:10:54;6.77;;;3.37;;
31906;SDS011;18455;50.858;13.662;2023-02-28T00:16:00;5.07;;;2.77;;
31906;SDS011;18455;50.858;13.662;2023-02-28T00:21:02;3.93;;;3.00;;
31906;SDS011;18455;50.858;13.662;2023-02-28T00:26:03;6.37;;;3.20;;
31906;SDS011;18455;50.858;13.662;2023-02-28T00:31:03;4.50;;;2.60;;
31906;SDS011;18455;50.858;13.662;2023-02-28T00:36:08;5.37;;;3.23;;
31906;SDS011;18455;50.858;13.662;2023-02-28T00:41:12;4.20;;;2.60;;
31906;SDS011;18455;50.858;13.662;2023-02-28T00:46:13;4.97;;;2.87;;
31906;SDS011;18455;50.858;13.662;2023-02-28T00:51:13;4.77;;;3.13;;
31906;SDS011;18455;50.858;13.662;2023-02-28T00:56:13;6.63;;;3.10;;
31906;SDS011;18455;50.858;13.662;2023-02-28T01:01:14;7.50;;;3.30;;
31906;SDS011;18455;50.858;13.662;2023-02-28T01:06:14;6.77;;;3.07;;
31906;SDS011;18455;50.858;13.662;2023-02-28T01:11:15;6.27;;;3.23;;
31906;SDS011;18455;50.858;13.662;2023-02-28T01:16:16;6.23;;;3.37;;
31906;SDS011;18455;50.858;13.662;2023-02-28T01:21:18;8.90;;;3.40;;
31906;SDS011;18455;50.858;13.662;2023-02-28T01:26:20;6.53;;;3.70;;
31906;SDS011;18455;50.858;13.662;2023-02-28T01:31:22;6.93;;;3.83;;
31906;SDS011;18455;50.858;13.662;2023-02-28T01:36:23;4.43;;;3.30;;
31906;SDS011;18455;50.858;13.662;2023-02-28T01:41:25;5.20;;;3.53;;
31906;SDS011;18455;50.858;13.662;2023-02-28T01:46:29;4.73;;;3.17;;
31906;SDS011;18455;50.858;13.662;2023-02-28T01:51:34;5.47;;;3.47;;
31906;SDS011;18455;50.858;13.662;2023-02-28T01:56:41;5.10;;;3.13;;
31906;SDS011;18455;50.858;13.662;2023-02-28T02:01:44;7.73;;;3.57;;
31906;SDS011;18455;50.858;13.662;2023-02-28T02:06:45;17.50;;;7.00;;
31906;SDS011;18455;50.858;13.662;2023-02-28T02:11:47;6.03;;;3.33;;
31906;SDS011;18455;50.858;13.662;2023-02-28T02:17:00;6.63;;;3.93;;
31906;SDS011;18455;50.858;13.662;2023-02-28T02:22:12;6.60;;;3.77;;
31906;SDS011;18455;50.858;13.662;2023-02-28T02:27:39;6.90;;;3.50;;
31906;SDS011;18455;50.858;13.662;2023-02-28T02:33:20;9.80;;;5.40;;
31906;SDS011;18455;50.858;13.662;2023-02-28T02:38:34;9.20;;;4.47;;
31906;SDS011;18455;50.858;13.662;2023-02-28T02:43:40;6.37;;;3.83;;
31906;SDS011;18455;50.858;13.662;2023-02-28T02:48:46;6.70;;;3.87;;
31906;SDS011;18455;50.858;13.662;2023-02-28T02:54:08;8.67;;;4.83;;
31906;SDS011;18455;50.858;13.662;2023-02-28T02:59:17;7.07;;;3.77;;
31906;SDS011;18455;50.858;13.662;2023-02-28T03:04:22;6.23;;;3.90;;
31906;SDS011;18455;50.858;13.662;2023-02-28T03:09:23;8.47;;;4.57;;
31906;SDS011;18455;50.858;13.662;2023-02-28T03:14:25;7.20;;;4.60;;
31906;SDS011;18455;50.858;13.662;2023-02-28T03:19:52;11.17;;;5.00;;
31906;SDS011;18455;50.858;13.662;2023-02-28T03:25:24;10.43;;;5.50;;
31906;SDS011;18455;50.858;13.662;2023-02-28T03:35:42;12.83;;;6.13;;
31906;SDS011;18455;50.858;13.662;2023-02-28T03:40:47;8.97;;;6.17;;
31906;SDS011;18455;50.858;13.662;2023-02-28T03:45:49;10.20;;;6.60;;
31906;SDS011;18455;50.858;13.662;2023-02-28T03:50:54;15.90;;;8.27;;
31906;SDS011;18455;50.858;13.662;2023-02-28T03:56:06;12.50;;;6.33;;
31906;SDS011;18455;50.858;13.662;2023-02-28T04:01:12;9.93;;;5.47;;
31906;SDS011;18455;50.858;13.662;2023-02-28T04:06:16;11.63;;;6.03;;
31906;SDS011;18455;50.858;13.662;2023-02-28T04:16:23;11.67;;;6.50;;
31906;SDS011;18455;50.858;13.662;2023-02-28T04:21:23;16.87;;;9.00;;
31906;SDS011;18455;50.858;13.662;2023-02-28T04:26:24;13.77;;;6.27;;
31906;SDS011;18455;50.858;13.662;2023-02-28T04:31:24;10.47;;;5.87;;
31906;SDS011;18455;50.858;13.662;2023-02-28T04:36:24;12.00;;;7.07;;
31906;SDS011;18455;50.858;13.662;2023-02-28T04:41:25;12.17;;;6.80;;
31906;SDS011;18455;50.858;13.662;2023-02-28T04:46:25;11.57;;;6.67;;
31906;SDS011;18455;50.858;13.662;2023-02-28T04:51:26;12.33;;;6.90;;
31906;SDS011;18455;50.858;13.662;2023-02-28T04:56:26;11.60;;;6.80;;
31906;SDS011;18455;50.858;13.662;2023-02-28T05:01:30;12.03;;;6.90;;
31906;SDS011;18455;50.858;13.662;2023-02-28T05:06:32;12.70;;;7.33;;
31906;SDS011;18455;50.858;13.662;2023-02-28T05:11:33;15.93;;;7.63;;
31906;SDS011;18455;50.858;13.662;2023-02-28T05:16:34;15.13;;;7.43;;
31906;SDS011;18455;50.858;13.662;2023-02-28T05:21:36;14.67;;;7.90;;
31906;SDS011;18455;50.858;13.662;2023-02-28T05:26:39;15.77;;;8.00;;
31906;SDS011;18455;50.858;13.662;2023-02-28T05:31:40;14.57;;;7.37;;
31906;SDS011;18455;50.858;13.662;2023-02-28T05:36:41;15.53;;;7.60;;
31906;SDS011;18455;50.858;13.662;2023-02-28T05:41:42;17.90;;;8.63;;
31906;SDS011;18455;50.858;13.662;2023-02-28T05:46:42;16.00;;;8.87;;
31906;SDS011;18455;50.858;13.662;2023-02-28T05:51:43;14.70;;;8.47;;
31906;SDS011;18455;50.858;13.662;2023-02-28T05:56:43;17.67;;;8.17;;
31906;SDS011;18455;50.858;13.662;2023-02-28T06:01:45;15.83;;;8.60;;
31906;SDS011;18455;50.858;13.662;2023-02-28T06:06:48;16.97;;;9.30;;
31906;SDS011;18455;50.858;13.662;2023-02-28T06:11:49;14.23;;;7.93;;
31906;SDS011;18455;50.858;13.662;2023-02-28T06:16:50;16.17;;;7.27;;
31906;SDS011;18455;50.858;13.662;2023-02-28T06:21:51;17.43;;;9.30;;
31906;SDS011;18455;50.858;13.662;2023-02-28T06:26:52;13.70;;;6.73;;
31906;SDS011;18455;50.858;13.662;2023-02-28T06:31:52;13.27;;;7.90;;
31906;SDS011;18455;50.858;13.662;2023-02-28T06:36:53;22.77;;;10.57;;
31906;SDS011;18455;50.858;13.662;2023-02-28T06:41:53;17.97;;;9.50;;
31906;SDS011;18455;50.858;13.662;2023-02-28T06:46:53;16.50;;;9.57;;
31906;SDS011;18455;50.858;13.662;2023-02-28T06:51:54;18.13;;;8.63;;
31906;SDS011;18455;50.858;13.662;2023-02-28T06:56:54;17.67;;;9.80;;
31906;SDS011;18455;50.858;13.662;2023-02-28T07:01:54;18.90;;;10.03;;
31906;SDS011;18455;50.858;13.662;2023-02-28T07:06:55;25.47;;;11.27;;
31906;SDS011;18455;50.858;13.662;2023-02-28T07:11:56;184.73;;;65.17;;
31906;SDS011;18455;50.858;13.662;2023-02-28T07:16:57;106.47;;;48.07;;
31906;SDS011;18455;50.858;13.662;2023-02-28T07:21:57;22.67;;;13.53;;
31906;SDS011;18455;50.858;13.662;2023-02-28T07:26:58;21.73;;;13.40;;
31906;SDS011;18455;50.858;13.662;2023-02-28T07:31:59;18.53;;;11.47;;
31906;SDS011;18455;50.858;13.662;2023-02-28T07:36:59;16.90;;;8.47;;
31906;SDS011;18455;50.858;13.662;2023-02-28T07:42:06;15.97;;;9.87;;
31906;SDS011;18455;50.858;13.662;2023-02-28T07:47:10;14.13;;;8.27;;
31906;SDS011;18455;50.858;13.662;2023-02-28T07:52:10;14.40;;;8.43;;
31906;SDS011;18455;50.858;13.662;2023-02-28T07:57:11;30.63;;;13.77;;
31906;SDS011;18455;50.858;13.662;2023-02-28T08:02:12;25.57;;;11.37;;
31906;SDS011;18455;50.858;13.662;2023-02-28T08:07:13;15.20;;;8.17;;
31906;SDS011;18455;50.858;13.662;2023-02-28T08:12:14;14.30;;;8.13;;
31906;SDS011;18455;50.858;13.662;2023-02-28T08:17:14;15.57;;;8.30;;
31906;SDS011;18455;50.858;13.662;2023-02-28T08:22:15;20.70;;;9.17;;
31906;SDS011;18455;50.858;13.662;2023-02-28T08:27:15;14.13;;;8.30;;
31906;SDS011;18455;50.858;13.662;2023-02-28T08:32:15;13.87;;;9.13;;
31906;SDS011;18455;50.858;13.662;2023-02-28T08:37:16;14.27;;;7.83;;
31906;SDS011;18455;50.858;13.662;2023-02-28T08:42:16;13.47;;;8.30;;
31906;SDS011;18455;50.858;13.662;2023-02-28T08:47:17;12.10;;;8.17;;
31906;SDS011;18455;50.858;13.662;2023-02-28T08:52:17;13.63;;;8.30;;
31906;SDS011;18455;50.858;13.662;2023-02-28T08:57:17;16.70;;;8.57;;
31906;SDS011;18455;50.858;13.662;2023-02-28T09:02:18;14.73;;;8.27;;
31906;SDS011;18455;50.858;13.662;2023-02-28T09:07:21;18.97;;;9.17;;
31906;SDS011;18455;50.858;13.662;2023-02-28T09:12:25;15.57;;;8.93;;
31906;SDS011;18455;50.858;13.662;2023-02-28T09:17:26;14.47;;;8.17;;
31906;SDS011;18455;50.858;13.662;2023-02-28T09:22:27;20.23;;;8.70;;
31906;SDS011;18455;50.858;13.662;2023-02-28T09:27:27;16.57;;;8.60;;
31906;SDS011;18455;50.858;13.662;2023-02-28T09:32:27;15.33;;;8.53;;
31906;SDS011;18455;50.858;13.662;2023-02-28T09:37:28;13.93;;;8.23;;
31906;SDS011;18455;50.858;13.662;2023-02-28T09:42:31;13.67;;;6.87;;
31906;SDS011;18455;50.858;13.662;2023-02-28T09:47:42;19.20;;;9.27;;
31906;SDS011;18455;50.858;13.662;2023-02-28T09:52:45;14.60;;;9.00;;
31906;SDS011;18455;50.858;13.662;2023-02-28T09:57:48;14.23;;;7.40;;
31906;SDS011;18455;50.858;13.662;2023-02-28T10:03:04;13.53;;;7.40;;
31906;SDS011;18455;50.858;13.662;2023-02-28T10:13:33;11.63;;;6.50;;
31906;SDS011;18455;50.858;13.662;2023-02-28T10:19:21;10.60;;;6.33;;
31906;SDS011;18455;50.858;13.662;2023-02-28T10:29:16;10.50;;;6.07;;
31906;SDS011;18455;50.858;13.662;2023-02-28T10:34:16;9.60;;;5.90;;
31906;SDS011;18455;50.858;13.662;2023-02-28T10:44:40;8.87;;;6.03;;
31906;SDS011;18455;50.858;13.662;2023-02-28T10:49:45;10.43;;;6.40;;
31906;SDS011;18455;50.858;13.662;2023-02-28T10:54:47;9.23;;;6.47;;
31906;SDS011;18455;50.858;13.662;2023-02-28T10:59:51;12.40;;;6.67;;
31906;SDS011;18455;50.858;13.662;2023-02-28T11:04:52;10.73;;;6.30;;
31906;SDS011;18455;50.858;13.662;2023-02-28T11:09:56;9.57;;;6.17;;
31906;SDS011;18455;50.858;13.662;2023-02-28T11:20:21;8.60;;;6.00;;
31906;SDS011;18455;50.858;13.662;2023-02-28T11:25:25;11.17;;;6.67;;
31906;SDS011;18455;50.858;13.662;2023-02-28T11:30:28;9.20;;;6.17;;
31906;SDS011;18455;50.858;13.662;2023-02-28T11:35:35;9.37;;;5.53;;
31906;SDS011;18455;50.858;13.662;2023-02-28T11:46:05;10.23;;;5.83;;
31906;SDS011;18455;50.858;13.662;2023-02-28T11:56:25;12.53;;;6.27;;
31906;SDS011;18455;50.858;13.662;2023-02-28T12:01:37;9.80;;;5.63;;
31906;SDS011;18455;50.858;13.662;2023-02-28T12:12:20;10.90;;;5.93;;
31906;SDS011;18455;50.858;13.662;2023-02-28T12:28:11;8.57;;;6.37;;
31906;SDS011;18455;50.858;13.662;2023-02-28T12:33:14;12.03;;;6.13;;
31906;SDS011;18455;50.858;13.662;2023-02-28T12:38:17;7.23;;;4.87;;
31906;SDS011;18455;50.858;13.662;2023-02-28T12:43:19;10.23;;;5.43;;
31906;SDS011;18455;50.858;13.662;2023-02-28T12:48:26;8.93;;;5.77;;
31906;SDS011;18455;50.858;13.662;2023-02-28T12:59:01;8.67;;;5.40;;
31906;SDS011;18455;50.858;13.662;2023-02-28T13:04:13;8.20;;;5.40;;
31906;SDS011;18455;50.858;13.662;2023-02-28T13:09:33;6.57;;;4.70;;
31906;SDS011;18455;50.858;13.662;2023-02-28T13:14:36;9.73;;;5.00;;
31906;SDS011;18455;50.858;13.662;2023-02-28T13:24:56;12.07;;;6.13;;
31906;SDS011;18455;50.858;13.662;2023-02-28T13:29:56;7.53;;;5.10;;
31906;SDS011;18455;50.858;13.662;2023-02-28T13:39:57;8.90;;;5.20;;
31906;SDS011;18455;50.858;13.662;2023-02-28T13:50:14;7.97;;;5.57;;
31906;SDS011;18455;50.858;13.662;2023-02-28T13:55:25;9.20;;;5.20;;
31906;SDS011;18455;50.858;13.662;2023-02-28T14:00:39;9.37;;;6.13;;
31906;SDS011;18455;50.858;13.662;2023-02-28T14:05:44;7.60;;;5.40;;
31906;SDS011;18455;50.858;13.662;2023-02-28T14:10:47;8.93;;;5.70;;
31906;SDS011;18455;50.858;13.662;2023-02-28T14:15:55;8.37;;;5.70;;
31906;SDS011;18455;50.858;13.662;2023-02-28T14:21:01;9.17;;;5.70;;
31906;SDS011;18455;50.858;13.662;2023-02-28T14:26:13;7.93;;;5.70;;
31906;SDS011;18455;50.858;13.662;2023-02-28T14:31:38;10.13;;;6.30;;
31906;SDS011;18455;50.858;13.662;2023-02-28T14:36:43;10.70;;;7.40;;
31906;SDS011;18455;50.858;13.662;2023-02-28T14:41:45;12.07;;;7.87;;
31906;SDS011;18455;50.858;13.662;2023-02-28T14:46:46;8.93;;;7.27;;
31906;SDS011;18455;50.858;13.662;2023-02-28T14:51:49;13.60;;;8.03;;
31906;SDS011;18455;50.858;13.662;2023-02-28T14:56:50;12.97;;;8.53;;
31906;SDS011;18455;50.858;13.662;2023-02-28T15:01:51;14.17;;;9.23;;
31906;SDS011;18455;50.858;13.662;2023-02-28T15:07:07;12.37;;;8.20;;
31906;SDS011;18455;50.858;13.662;2023-02-28T15:12:13;13.23;;;9.30;;
31906;SDS011;18455;50.858;13.662;2023-02-28T15:17:18;14.37;;;9.20;;
31906;SDS011;18455;50.858;13.662;2023-02-28T15:22:27;12.20;;;8.00;;
31906;SDS011;18455;50.858;13.662;2023-02-28T15:27:30;18.00;;;9.17;;
31906;SDS011;18455;50.858;13.662;2023-02-28T15:32:34;14.63;;;9.37;;
31906;SDS011;18455;50.858;13.662;2023-02-28T15:37:39;15.27;;;9.20;;
31906;SDS011;18455;50.858;13.662;2023-02-28T15:42:58;11.90;;;8.77;;
31906;SDS011;18455;50.858;13.662;2023-02-28T15:47:58;19.13;;;10.87;;
31906;SDS011;18455;50.858;13.662;2023-02-28T15:52:58;13.83;;;9.57;;
31906;SDS011;18455;50.858;13.662;2023-02-28T15:58:00;16.90;;;10.37;;
31906;SDS011;18455;50.858;13.662;2023-02-28T16:03:01;16.00;;;9.10;;
31906;SDS011;18455;50.858;13.662;2023-02-28T16:08:26;14.20;;;9.40;;
31906;SDS011;18455;50.858;13.662;2023-02-28T16:13:26;15.97;;;8.90;;
31906;SDS011;18455;50.858;13.662;2023-02-28T16:18:27;15.53;;;9.63;;
31906;SDS011;18455;50.858;13.662;2023-02-28T16:23:27;15.67;;;10.57;;
31906;SDS011;18455;50.858;13.662;2023-02-28T16:28:29;18.77;;;10.93;;
31906;SDS011;18455;50.858;13.662;2023-02-28T16:33:32;18.07;;;10.47;;
31906;SDS011;18455;50.858;13.662;2023-02-28T16:38:34;20.57;;;12.07;;
31906;SDS011;18455;50.858;13.662;2023-02-28T16:43:35;24.27;;;12.97;;
31906;SDS011;18455;50.858;13.662;2023-02-28T16:48:35;29.53;;;12.27;;
31906;SDS011;18455;50.858;13.662;2023-02-28T16:53:35;20.10;;;10.97;;
31906;SDS011;18455;50.858;13.662;2023-02-28T16:58:36;28.60;;;16.50;;
31906;SDS011;18455;50.858;13.662;2023-02-28T17:03:36;28.80;;;16.33;;
31906;SDS011;18455;50.858;13.662;2023-02-28T17:08:37;26.53;;;14.93;;
31906;SDS011;18455;50.858;13.662;2023-02-28T17:13:38;34.90;;;15.93;;
31906;SDS011;18455;50.858;13.662;2023-02-28T17:18:38;30.73;;;17.50;;
31906;SDS011;18455;50.858;13.662;2023-02-28T17:23:38;24.03;;;13.23;;
31906;SDS011;18455;50.858;13.662;2023-02-28T17:28:39;21.10;;;11.93;;
31906;SDS011;18455;50.858;13.662;2023-02-28T17:33:39;23.47;;;13.20;;
31906;SDS011;18455;50.858;13.662;2023-02-28T17:38:40;24.97;;;13.40;;
31906;SDS011;18455;50.858;13.662;2023-02-28T17:43:40;28.33;;;15.37;;
31906;SDS011;18455;50.858;13.662;2023-02-28T17:48:41;44.63;;;22.30;;
31906;SDS011;18455;50.858;13.662;2023-02-28T17:53:41;30.37;;;15.20;;
31906;SDS011;18455;50.858;13.662;2023-02-28T17:58:41;27.80;;;12.57;;
31906;SDS011;18455;50.858;13.662;2023-02-28T18:03:42;28.37;;;15.53;;
31906;SDS011;18455;50.858;13.662;2023-02-28T18:08:42;28.10;;;14.07;;
31906;SDS011;18455;50.858;13.662;2023-02-28T18:13:52;25.10;;;13.50;;
31906;SDS011;18455;50.858;13.662;2023-02-28T18:18:54;22.93;;;13.07;;
31906;SDS011;18455;50.858;13.662;2023-02-28T18:23:55;23.80;;;13.07;;
31906;SDS011;18455;50.858;13.662;2023-02-28T18:28:56;29.87;;;14.77;;
31906;SDS011;18455;50.858;13.662;2023-02-28T18:33:56;33.63;;;15.87;;
31906;SDS011;18455;50.858;13.662;2023-02-28T18:38:57;35.73;;;18.27;;
31906;SDS011;18455;50.858;13.662;2023-02-28T18:43:59;28.67;;;16.83;;
31906;SDS011;18455;50.858;13.662;2023-02-28T18:49:01;30.57;;;15.30;;
31906;SDS011;18455;50.858;13.662;2023-02-28T18:54:01;30.50;;;15.77;;
31906;SDS011;18455;50.858;13.662;2023-02-28T18:59:02;30.10;;;16.97;;
31906;SDS011;18455;50.858;13.662;2023-02-28T19:04:03;27.97;;;15.37;;
31906;SDS011;18455;50.858;13.662;2023-02-28T19:09:03;38.10;;;19.53;;
31906;SDS011;18455;50.858;13.662;2023-02-28T19:14:04;19.57;;;11.43;;
31906;SDS011;18455;50.858;13.662;2023-02-28T19:19:05;31.97;;;16.87;;
31906;SDS011;18455;50.858;13.662;2023-02-28T19:24:05;27.40;;;15.90;;
31906;SDS011;18455;50.858;13.662;2023-02-28T19:29:05;31.60;;;16.03;;
31906;SDS011;18455;50.858;13.662;2023-02-28T19:34:06;25.67;;;13.60;;
31906;SDS011;18455;50.858;13.662;2023-02-28T19:39:06;22.83;;;12.00;;
31906;SDS011;18455;50.858;13.662;2023-02-28T19:44:07;29.30;;;14.53;;
31906;SDS011;18455;50.858;13.662;2023-02-28T19:49:07;25.90;;;12.73;;
31906;SDS011;18455;50.858;13.662;2023-02-28T19:54:08;23.87;;;12.67;;
31906;SDS011;18455;50.858;13.662;2023-02-28T19:59:08;34.40;;;16.33;;
31906;SDS011;18455;50.858;13.662;2023-02-28T20:04:09;36.50;;;19.30;;
31906;SDS011;18455;50.858;13.662;2023-02-28T20:09:10;38.30;;;15.23;;
31906;SDS011;18455;50.858;13.662;2023-02-28T20:14:11;56.27;;;22.40;;
31906;SDS011;18455;50.858;13.662;2023-02-28T20:19:12;53.00;;;21.60;;
31906;SDS011;18455;50.858;13.662;2023-02-28T20:24:12;21.70;;;11.00;;
31906;SDS011;18455;50.858;13.662;2023-02-28T20:29:13;23.67;;;12.30;;
31906;SDS011;18455;50.858;13.662;2023-02-28T20:34:13;27.20;;;13.00;;
31906;SDS011;18455;50.858;13.662;2023-02-28T20:39:14;25.70;;;9.77;;
31906;SDS011;18455;50.858;13.662;2023-02-28T20:44:14;13.40;;;8.43;;
31906;SDS011;18455;50.858;13.662;2023-02-28T20:49:15;23.20;;;11.17;;
31906;SDS011;18455;50.858;13.662;2023-02-28T20:54:15;22.60;;;12.50;;
31906;SDS011;18455;50.858;13.662;2023-02-28T20:59:15;19.97;;;10.73;;
31906;SDS011;18455;50.858;13.662;2023-02-28T21:04:16;20.13;;;10.63;;
31906;SDS011;18455;50.858;13.662;2023-02-28T21:09:16;24.90;;;12.90;;
31906;SDS011;18455;50.858;13.662;2023-02-28T21:14:16;29.43;;;14.20;;
31906;SDS011;18455;50.858;13.662;2023-02-28T21:19:17;20.63;;;7.70;;
31906;SDS011;18455;50.858;13.662;2023-02-28T21:24:18;28.27;;;16.07;;
31906;SDS011;18455;50.858;13.662;2023-02-28T21:29:19;19.03;;;8.67;;
31906;SDS011;18455;50.858;13.662;2023-02-28T21:34:19;24.60;;;13.00;;
31906;SDS011;18455;50.858;13.662;2023-02-28T21:39:20;20.13;;;10.33;;
31906;SDS011;18455;50.858;13.662;2023-02-28T21:44:24;18.77;;;9.70;;
31906;SDS011;18455;50.858;13.662;2023-02-28T21:49:27;22.67;;;10.60;;
31906;SDS011;18455;50.858;13.662;2023-02-28T21:54:27;24.83;;;13.07;;
31906;SDS011;18455;50.858;13.662;2023-02-28T21:59:28;27.87;;;14.40;;
31906;SDS011;18455;50.858;13.662;2023-02-28T22:04:28;34.93;;;15.90;;
31906;SDS011;18455;50.858;13.662;2023-02-28T22:09:29;24.53;;;11.70;;
31906;SDS011;18455;50.858;13.662;2023-02-28T22:14:29;18.63;;;8.87;;
31906;SDS011;18455;50.858;13.662;2023-02-28T22:19:30;20.27;;;11.60;;
31906;SDS011;18455;50.858;13.662;2023-02-28T22:24:30;25.80;;;13.57;;
31906;SDS011;18455;50.858;13.662;2023-02-28T22:29:30;14.90;;;8.47;;
31906;SDS011;18455;50.858;13.662;2023-02-28T22:34:31;23.23;;;12.93;;
31906;SDS011;18455;50.858;13.662;2023-02-28T22:39:31;18.67;;;7.70;;
31906;SDS011;18455;50.858;13.662;2023-02-28T22:44:31;15.47;;;8.27;;
31906;SDS011;18455;50.858;13.662;2023-02-28T22:49:32;27.90;;;11.83;;
31906;SDS011;18455;50.858;13.662;2023-02-28T22:54:32;17.77;;;8.57;;
31906;SDS011;18455;50.858;13.662;2023-02-28T22:59:32;32.53;;;15.30;;
31906;SDS011;18455;50.858;13.662;2023-02-28T23:04:33;27.63;;;14.47;;
31906;SDS011;18455;50.858;13.662;2023-02-28T23:09:33;20.20;;;9.87;;
31906;SDS011;18455;50.858;13.662;2023-02-28T23:14:34;20.30;;;9.17;;
31906;SDS011;18455;50.858;13.662;2023-02-28T23:19:34;18.03;;;8.37;;
31906;SDS011;18455;50.858;13.662;2023-02-28T23:24:35;19.40;;;11.20;;
31906;SDS011;18455;50.858;13.662;2023-02-28T23:29:35;24.57;;;12.50;;
31906;SDS011;18455;50.858;13.662;2023-02-28T23:34:36;27.77;;;11.83;;
31906;SDS011;18455;50.858;13.662;2023-02-28T23:39:36;18.63;;;8.97;;
31906;SDS011;18455;50.858;13.662;2023-02-28T23:44:37;18.73;;;8.00;;
31906;SDS011;18455;50.858;13.662;2023-02-28T23:49:37;22.87;;;11.23;;
31906;SDS011;18455;50.858;13.662;2023-02-28T23:54:37;22.20;;;9.53;;
31906;SDS011;18455;50.858;13.662;2023-02-28T23:59:38;23.80;;;13.27;;
